createdAt,value
2019-03-24T00:01:05.652Z,6.82
2019-03-24T00:03:37.597Z,6.80
2019-03-24T00:06:11.714Z,6.78
2019-03-24T00:08:44.768Z,6.75
2019-03-24T00:11:17.961Z,6.72
2019-03-24T00:13:51.867Z,6.77
2019-03-24T00:16:23.800Z,6.78
2019-03-24T00:18:55.899Z,6.78
2019-03-24T00:21:29.958Z,6.80
2019-03-24T00:24:01.913Z,6.78
2019-03-24T00:26:33.885Z,6.75
2019-03-24T00:29:07.938Z,6.73
2019-03-24T00:31:40.970Z,6.73
2019-03-24T00:34:15.725Z,6.72
2019-03-24T00:36:49.020Z,6.68
2019-03-24T00:39:21.973Z,6.65
2019-03-24T00:41:55.903Z,6.61
2019-03-24T00:44:28.685Z,6.60
2019-03-24T00:47:01.031Z,6.56
2019-03-24T00:49:33.828Z,6.51
2019-03-24T00:52:06.883Z,6.47
2019-03-24T00:54:40.051Z,6.43
2019-03-24T00:57:13.993Z,6.41
2019-03-24T00:59:46.099Z,6.38
2019-03-24T01:02:21.820Z,6.37
2019-03-24T01:04:54.931Z,6.33
2019-03-24T01:07:29.479Z,6.31
2019-03-24T01:10:02.106Z,6.27
2019-03-24T01:12:35.021Z,6.23
2019-03-24T01:15:09.357Z,6.23
2019-03-24T01:17:43.352Z,6.18
2019-03-24T01:20:16.955Z,6.17
2019-03-24T01:22:51.139Z,6.15
2019-03-24T01:25:24.095Z,6.13
2019-03-24T01:27:56.260Z,6.05
2019-03-24T01:30:31.819Z,6.00
2019-03-24T01:33:04.552Z,5.97
2019-03-24T01:35:37.191Z,5.94
2019-03-24T01:38:11.245Z,5.93
2019-03-24T01:40:44.923Z,5.87
2019-03-24T01:43:18.199Z,5.85
2019-03-24T01:45:58.525Z,5.80
2019-03-24T01:48:28.281Z,5.76
2019-03-24T01:51:02.198Z,5.72
2019-03-24T01:53:36.271Z,5.69
2019-03-24T01:56:09.147Z,5.67
2019-03-24T01:58:43.255Z,5.64
2019-03-24T02:01:15.331Z,5.61
2019-03-24T02:03:47.219Z,5.62
2019-03-24T02:06:21.086Z,5.63
2019-03-24T02:08:54.429Z,5.64
2019-03-24T02:11:29.870Z,5.64
2019-03-24T02:14:03.349Z,5.61
2019-03-24T02:16:36.396Z,5.58
2019-03-24T02:19:08.817Z,5.56
2019-03-24T02:21:42.187Z,5.55
2019-03-24T02:24:14.595Z,5.54
2019-03-24T02:26:48.486Z,5.55
2019-03-24T02:29:21.319Z,5.55
2019-03-24T02:31:54.257Z,5.57
2019-03-24T02:34:27.261Z,5.55
2019-03-24T02:37:00.437Z,5.55
2019-03-24T02:39:34.428Z,5.52
2019-03-24T02:42:08.411Z,5.52
2019-03-24T02:44:43.039Z,5.50
2019-03-24T02:47:16.026Z,5.48
2019-03-24T02:49:48.992Z,5.45
2019-03-24T02:52:22.565Z,5.44
2019-03-24T02:54:55.418Z,5.44
2019-03-24T02:57:30.043Z,5.43
2019-03-24T03:00:02.603Z,5.40
2019-03-24T03:02:36.541Z,5.37
2019-03-24T03:05:11.037Z,5.35
2019-03-24T03:07:43.619Z,5.29
2019-03-24T03:10:16.282Z,5.28
2019-03-24T03:12:50.965Z,5.25
2019-03-24T03:15:24.765Z,5.22
2019-03-24T03:18:00.078Z,5.19
2019-03-24T03:20:33.680Z,5.18
2019-03-24T03:23:05.750Z,5.16
2019-03-24T03:25:37.733Z,5.14
2019-03-24T03:28:10.832Z,5.13
2019-03-24T03:30:43.975Z,5.08
2019-03-24T03:33:17.771Z,5.08
2019-03-24T03:35:50.810Z,5.08
2019-03-24T03:38:22.653Z,5.07
2019-03-24T03:40:54.841Z,5.07
2019-03-24T03:43:27.793Z,5.06
2019-03-24T03:46:01.907Z,5.00
2019-03-24T03:48:35.825Z,4.98
2019-03-24T03:51:10.174Z,4.96
2019-03-24T03:53:43.272Z,4.95
2019-03-24T03:56:15.233Z,4.94
2019-03-24T03:58:47.166Z,4.94
2019-03-24T04:01:20.844Z,4.96
2019-03-24T04:03:53.962Z,4.96
2019-03-24T04:06:28.016Z,4.94
2019-03-24T04:08:59.978Z,4.90
2019-03-24T04:11:31.809Z,4.84
2019-03-24T04:14:05.899Z,4.79
2019-03-24T04:16:38.854Z,4.66
2019-03-24T04:19:13.593Z,4.57
2019-03-24T04:21:45.957Z,4.52
2019-03-24T04:24:17.797Z,4.45
2019-03-24T04:26:50.887Z,4.42
2019-03-24T04:29:24.048Z,4.44
2019-03-24T04:31:58.101Z,4.45
2019-03-24T04:34:31.155Z,4.47
2019-03-24T04:37:04.974Z,4.49
2019-03-24T04:39:39.160Z,4.50
2019-03-24T04:42:12.001Z,4.51
2019-03-24T04:44:46.192Z,4.50
2019-03-24T04:47:18.065Z,4.49
2019-03-24T04:49:50.786Z,4.49
2019-03-24T04:52:24.641Z,4.48
2019-03-24T04:54:57.084Z,4.45
2019-03-24T04:57:31.116Z,4.33
2019-03-24T05:00:04.138Z,4.30
2019-03-24T05:02:38.081Z,4.28
2019-03-24T05:05:12.309Z,4.28
2019-03-24T05:07:45.620Z,4.27
2019-03-24T05:10:28.037Z,4.25
2019-03-24T05:13:02.249Z,4.22
2019-03-24T05:15:35.416Z,4.19
2019-03-24T05:18:09.046Z,4.21
2019-03-24T05:20:42.473Z,4.24
2019-03-24T05:23:15.230Z,4.26
2019-03-24T05:25:49.320Z,4.30
2019-03-24T05:28:21.159Z,4.34
2019-03-24T05:30:53.711Z,4.39
2019-03-24T05:33:27.275Z,4.44
2019-03-24T05:35:59.372Z,4.46
2019-03-24T05:38:31.488Z,4.49
2019-03-24T05:41:04.732Z,4.52
2019-03-24T05:43:40.978Z,4.56
2019-03-24T05:46:14.824Z,4.60
2019-03-24T05:48:48.243Z,4.64
2019-03-24T05:51:21.546Z,4.58
2019-03-24T05:53:57.881Z,4.60
2019-03-24T05:56:29.822Z,4.59
2019-03-24T05:59:03.421Z,4.63
2019-03-24T06:01:36.408Z,4.66
2019-03-24T06:04:08.375Z,4.64
2019-03-24T06:06:41.554Z,4.68
2019-03-24T06:09:15.007Z,4.72
2019-03-24T06:11:51.280Z,4.85
2019-03-24T06:14:25.316Z,4.92
2019-03-24T06:16:57.464Z,5.06
2019-03-24T06:19:29.363Z,5.18
2019-03-24T06:22:02.478Z,5.32
2019-03-24T06:24:36.379Z,5.47
2019-03-24T06:27:09.586Z,5.56
2019-03-24T06:29:43.465Z,5.65
2019-03-24T06:32:15.431Z,5.78
2019-03-24T06:34:48.621Z,5.90
2019-03-24T06:37:21.437Z,5.99
2019-03-24T06:39:53.523Z,6.08
2019-03-24T06:42:25.381Z,6.08
2019-03-24T06:44:58.637Z,6.11
2019-03-24T06:47:32.512Z,6.19
2019-03-24T06:50:06.029Z,6.24
2019-03-24T06:52:39.533Z,6.37
2019-03-24T06:55:13.916Z,6.47
2019-03-24T06:57:46.662Z,6.61
2019-03-24T07:00:20.645Z,6.70
2019-03-24T07:02:53.522Z,6.80
2019-03-24T07:05:25.792Z,6.92
2019-03-24T07:08:00.550Z,7.00
2019-03-24T07:10:34.553Z,7.12
2019-03-24T07:13:08.608Z,7.17
2019-03-24T07:15:41.877Z,7.28
2019-03-24T07:18:15.350Z,7.39
2019-03-24T07:20:49.469Z,7.51
2019-03-24T07:23:22.572Z,7.64
2019-03-24T07:25:56.895Z,7.71
2019-03-24T07:28:29.758Z,7.90
2019-03-24T07:31:03.660Z,8.06
2019-03-24T07:33:36.814Z,8.20
2019-03-24T07:36:10.719Z,8.21
2019-03-24T07:38:43.767Z,8.33
2019-03-24T07:41:15.810Z,8.55
2019-03-24T07:43:48.727Z,8.60
2019-03-24T07:46:22.537Z,8.74
2019-03-24T07:48:55.732Z,8.74
2019-03-24T07:51:28.993Z,8.86
2019-03-24T07:54:04.242Z,9.02
2019-03-24T07:56:38.876Z,9.08
2019-03-24T07:59:10.746Z,9.25
2019-03-24T08:01:43.759Z,9.40
2019-03-24T08:04:19.974Z,9.49
2019-03-24T08:06:53.766Z,9.80
2019-03-24T08:09:27.837Z,10.18
2019-03-24T08:12:01.328Z,10.28
2019-03-24T08:14:34.949Z,10.39
2019-03-24T08:17:08.096Z,10.62
2019-03-24T08:19:41.927Z,10.85
2019-03-24T08:22:15.124Z,10.73
2019-03-24T08:24:46.995Z,10.65
2019-03-24T08:27:18.987Z,10.72
2019-03-24T08:29:52.943Z,10.93
2019-03-24T08:32:27.011Z,11.03
2019-03-24T08:35:00.945Z,11.14
2019-03-24T08:37:33.943Z,11.30
2019-03-24T08:40:10.039Z,11.53
2019-03-24T08:42:44.124Z,11.72
2019-03-24T08:45:26.418Z,11.92
2019-03-24T08:48:00.433Z,12.01
2019-03-24T08:50:34.015Z,12.02
2019-03-24T08:53:07.559Z,12.36
2019-03-24T08:55:42.071Z,12.36
2019-03-24T08:58:14.154Z,12.66
2019-03-24T09:00:48.328Z,12.85
2019-03-24T09:03:20.328Z,12.85
2019-03-24T09:05:55.111Z,13.18
2019-03-24T09:08:29.292Z,13.45
2019-03-24T09:11:10.284Z,13.61
2019-03-24T09:13:48.161Z,13.86
2019-03-24T09:16:26.552Z,14.02
2019-03-24T09:19:05.641Z,14.16
2019-03-24T09:21:41.587Z,14.05
2019-03-24T09:24:20.527Z,13.92
2019-03-24T09:26:54.318Z,14.44
2019-03-24T09:29:29.280Z,14.87
2019-03-24T09:32:06.460Z,15.05
2019-03-24T09:34:40.505Z,14.75
2019-03-24T09:37:13.651Z,14.66
2019-03-24T09:39:48.706Z,14.75
2019-03-24T09:42:21.481Z,15.02
2019-03-24T09:44:53.470Z,14.60
2019-03-24T09:47:26.647Z,14.67
2019-03-24T09:49:59.412Z,14.95
2019-03-24T09:52:33.777Z,14.70
2019-03-24T09:55:07.190Z,14.69
2019-03-24T09:57:39.440Z,15.14
2019-03-24T10:00:12.130Z,15.58
2019-03-24T10:02:45.231Z,15.71
2019-03-24T10:05:18.290Z,15.78
2019-03-24T10:07:50.585Z,16.17
2019-03-24T10:10:24.742Z,16.27
2019-03-24T10:13:01.081Z,16.10
2019-03-24T10:15:55.833Z,16.22
2019-03-24T10:18:34.253Z,16.29
2019-03-24T10:21:10.590Z,16.52
2019-03-24T10:23:43.366Z,16.19
2019-03-24T10:26:15.575Z,16.48
2019-03-24T10:28:50.168Z,16.48
2019-03-24T10:31:23.689Z,16.67
2019-03-24T10:33:57.712Z,16.36
2019-03-24T10:36:32.256Z,16.14
2019-03-24T10:39:08.614Z,16.08
2019-03-24T10:41:43.026Z,16.11
2019-03-24T10:44:15.275Z,15.96
2019-03-24T10:46:48.681Z,16.10
2019-03-24T10:49:25.021Z,16.58
2019-03-24T10:51:55.639Z,16.77
2019-03-24T10:54:35.246Z,16.87
2019-03-24T10:57:08.693Z,17.22
2019-03-24T10:59:43.769Z,17.36
2019-03-24T11:02:15.699Z,17.50
2019-03-24T11:04:49.642Z,16.94
2019-03-24T11:07:21.770Z,16.85
2019-03-24T11:09:53.659Z,16.67
2019-03-24T11:12:26.150Z,16.74
2019-03-24T11:15:00.169Z,17.00
2019-03-24T11:17:33.667Z,17.33
2019-03-24T11:20:06.751Z,17.78
2019-03-24T11:22:39.731Z,17.84
2019-03-24T11:25:12.613Z,18.05
2019-03-24T11:27:47.995Z,17.93
2019-03-24T11:30:25.104Z,18.05
2019-03-24T11:32:58.775Z,18.16
2019-03-24T11:35:31.006Z,18.08
2019-03-24T11:38:05.250Z,18.29
2019-03-24T11:40:48.368Z,18.11
2019-03-24T11:43:27.771Z,18.24
2019-03-24T11:46:02.657Z,18.39
2019-03-24T11:48:36.067Z,18.65
2019-03-24T11:51:10.058Z,18.78
2019-03-24T11:53:44.072Z,18.89
2019-03-24T11:56:18.181Z,19.02
2019-03-24T11:58:51.266Z,18.78
2019-03-24T12:01:26.303Z,18.80
2019-03-24T12:04:01.042Z,18.93
2019-03-24T12:06:36.359Z,18.79
2019-03-24T12:09:13.678Z,18.93
2019-03-24T12:11:48.161Z,18.45
2019-03-24T12:14:30.686Z,19.16
2019-03-24T12:17:07.907Z,19.31
2019-03-24T12:19:42.196Z,19.20
2019-03-24T12:22:15.307Z,19.16
2019-03-24T12:24:48.274Z,18.96
2019-03-24T12:27:21.199Z,18.87
2019-03-24T12:29:55.186Z,18.56
2019-03-24T12:32:36.717Z,18.78
2019-03-24T12:35:14.172Z,18.93
2019-03-24T12:37:47.247Z,19.03
2019-03-24T12:40:21.302Z,19.24
2019-03-24T12:42:55.033Z,19.33
2019-03-24T12:45:28.330Z,19.28
2019-03-24T12:48:01.475Z,19.22
2019-03-24T12:50:37.559Z,19.34
2019-03-24T12:53:16.540Z,19.22
2019-03-24T12:55:52.649Z,18.12
2019-03-24T12:58:37.191Z,18.96
2019-03-24T13:01:11.908Z,18.86
2019-03-24T13:03:46.219Z,19.09
2019-03-24T13:06:19.303Z,18.91
2019-03-24T13:08:53.683Z,19.06
2019-03-24T13:11:28.345Z,19.29
2019-03-24T13:14:04.185Z,19.39
2019-03-24T13:16:38.470Z,19.48
2019-03-24T13:19:19.397Z,19.46
2019-03-24T13:21:55.372Z,19.42
2019-03-24T13:24:28.859Z,19.50
2019-03-24T13:27:04.994Z,19.64
2019-03-24T13:29:41.864Z,19.61
2019-03-24T13:32:15.789Z,19.73
2019-03-24T13:34:49.528Z,19.85
2019-03-24T13:37:22.413Z,19.74
2019-03-24T13:39:56.337Z,19.74
2019-03-24T13:42:30.385Z,19.78
2019-03-24T13:45:03.269Z,19.81
2019-03-24T13:47:37.420Z,19.96
2019-03-24T13:50:10.341Z,19.94
2019-03-24T13:52:47.488Z,20.05
2019-03-24T13:55:22.943Z,20.04
2019-03-24T13:58:01.389Z,20.16
2019-03-24T14:00:34.332Z,20.14
2019-03-24T14:03:11.085Z,20.05
2019-03-24T14:05:43.160Z,19.95
2019-03-24T14:08:18.711Z,19.79
2019-03-24T14:10:52.620Z,19.78
2019-03-24T14:13:26.734Z,19.75
2019-03-24T14:16:03.377Z,19.81
2019-03-24T14:18:35.660Z,19.89
2019-03-24T14:21:08.903Z,19.86
2019-03-24T14:23:43.000Z,19.82
2019-03-24T14:26:20.767Z,19.87
2019-03-24T14:28:55.021Z,19.95
2019-03-24T14:31:29.680Z,20.03
2019-03-24T14:34:03.759Z,20.08
2019-03-24T14:36:37.898Z,19.93
2019-03-24T14:39:10.832Z,19.84
2019-03-24T14:41:44.922Z,19.78
2019-03-24T14:44:17.850Z,19.93
2019-03-24T14:46:50.588Z,19.75
2019-03-24T14:49:24.737Z,19.62
2019-03-24T14:52:00.050Z,19.56
2019-03-24T14:54:36.212Z,19.49
2019-03-24T14:57:08.910Z,19.51
2019-03-24T14:59:41.898Z,19.38
2019-03-24T15:02:15.937Z,19.33
2019-03-24T15:04:48.714Z,19.27
2019-03-24T15:07:24.318Z,19.22
2019-03-24T15:10:00.023Z,19.21
2019-03-24T15:12:32.069Z,19.10
2019-03-24T15:15:07.775Z,19.10
2019-03-24T15:17:39.756Z,19.04
2019-03-24T15:20:14.029Z,19.06
2019-03-24T15:22:49.965Z,19.03
2019-03-24T15:25:24.997Z,18.91
2019-03-24T15:27:57.908Z,18.83
2019-03-24T15:30:30.834Z,18.73
2019-03-24T15:33:04.912Z,18.80
2019-03-24T15:35:38.036Z,18.78
2019-03-24T15:38:11.867Z,18.81
2019-03-24T15:40:45.523Z,18.74
2019-03-24T15:43:19.198Z,18.66
2019-03-24T15:45:53.026Z,18.58
2019-03-24T15:48:25.994Z,18.46
2019-03-24T15:51:01.810Z,18.38
2019-03-24T15:53:36.024Z,18.31
2019-03-24T15:56:10.153Z,18.36
2019-03-24T15:58:47.166Z,18.25
2019-03-24T16:01:19.298Z,18.29
2019-03-24T16:03:54.162Z,18.20
2019-03-24T16:06:26.998Z,18.08
2019-03-24T16:09:01.076Z,17.92
2019-03-24T16:11:34.169Z,17.87
2019-03-24T16:14:08.088Z,17.76
2019-03-24T16:16:40.953Z,17.75
2019-03-24T16:19:15.024Z,17.68
2019-03-24T16:21:49.169Z,17.51
2019-03-24T16:24:22.224Z,17.40
2019-03-24T16:26:55.017Z,17.28
2019-03-24T16:29:27.530Z,17.12
2019-03-24T16:32:00.179Z,17.00
2019-03-24T16:34:34.654Z,16.89
2019-03-24T16:37:07.283Z,16.78
2019-03-24T16:39:41.132Z,16.66
2019-03-24T16:42:14.151Z,16.53
2019-03-24T16:44:48.582Z,16.41
2019-03-24T16:47:26.954Z,16.28
2019-03-24T16:50:10.230Z,16.18
2019-03-24T16:52:57.504Z,16.06
2019-03-24T16:55:34.053Z,15.98
2019-03-24T16:58:06.250Z,15.79
2019-03-24T17:00:39.128Z,15.76
2019-03-24T17:03:15.655Z,15.68
2019-03-24T17:05:50.231Z,15.44
2019-03-24T17:08:23.328Z,15.46
2019-03-24T17:10:58.272Z,15.35
2019-03-24T17:13:30.315Z,15.20
2019-03-24T17:16:04.192Z,15.06
2019-03-24T17:18:37.295Z,14.94
2019-03-24T17:21:11.329Z,14.82
2019-03-24T17:23:45.317Z,14.68
2019-03-24T17:26:19.270Z,14.52
2019-03-24T17:28:52.939Z,14.41
2019-03-24T17:31:25.420Z,14.27
2019-03-24T17:33:59.577Z,14.16
2019-03-24T17:36:33.638Z,14.04
2019-03-24T17:39:07.685Z,13.91
2019-03-24T17:41:40.606Z,13.77
2019-03-24T17:44:13.403Z,13.68
2019-03-24T17:46:46.422Z,13.59
2019-03-24T17:49:19.508Z,13.48
2019-03-24T17:52:00.389Z,13.40
2019-03-24T17:54:25.455Z,13.35
2019-03-24T17:56:58.619Z,13.31
2019-03-24T17:59:32.627Z,13.25
2019-03-24T18:02:13.886Z,13.19
2019-03-24T18:04:39.469Z,13.14
2019-03-24T18:07:14.986Z,13.14
2019-03-24T18:09:49.545Z,13.14
2019-03-24T18:12:22.019Z,13.17
2019-03-24T18:14:54.471Z,13.14
2019-03-24T18:17:27.629Z,13.12
2019-03-24T18:20:01.458Z,13.11
2019-03-24T18:22:33.708Z,13.07
2019-03-24T18:25:06.667Z,12.97
2019-03-24T18:27:39.417Z,12.87
2019-03-24T18:30:13.229Z,12.76
2019-03-24T18:32:46.530Z,12.66
2019-03-24T18:35:19.647Z,12.60
2019-03-24T18:37:55.160Z,12.51
2019-03-24T18:40:27.436Z,12.43
2019-03-24T18:43:01.717Z,12.28
2019-03-24T18:45:36.520Z,12.19
2019-03-24T18:48:08.846Z,12.05
2019-03-24T18:50:43.770Z,11.91
2019-03-24T18:53:15.985Z,11.94
2019-03-24T18:55:49.024Z,11.94
2019-03-24T18:58:22.791Z,11.81
2019-03-24T19:00:55.886Z,11.68
2019-03-24T19:03:27.999Z,11.58
2019-03-24T19:06:00.975Z,11.54
2019-03-24T19:08:37.304Z,11.47
2019-03-24T19:11:10.010Z,11.42
2019-03-24T19:13:42.979Z,11.31
2019-03-24T19:16:16.020Z,11.21
2019-03-24T19:18:49.782Z,11.09
2019-03-24T19:21:23.925Z,11.03
2019-03-24T19:23:57.910Z,10.95
2019-03-24T19:26:30.836Z,10.86
2019-03-24T19:29:02.823Z,10.74
2019-03-24T19:31:35.550Z,10.63
2019-03-24T19:34:08.934Z,10.53
2019-03-24T19:36:44.312Z,10.44
2019-03-24T19:39:16.233Z,10.38
2019-03-24T19:41:49.969Z,10.33
2019-03-24T19:44:23.211Z,10.29
2019-03-24T19:46:57.530Z,10.31
2019-03-24T19:49:31.180Z,10.29
2019-03-24T19:52:05.074Z,10.20
2019-03-24T19:54:38.627Z,10.21
2019-03-24T19:57:11.108Z,10.20
2019-03-24T19:59:46.662Z,10.17
2019-03-24T20:02:20.163Z,10.17
2019-03-24T20:04:55.222Z,10.19
2019-03-24T20:07:28.135Z,10.17
2019-03-24T20:10:02.118Z,10.14
2019-03-24T20:12:37.775Z,10.08
2019-03-24T20:15:10.381Z,9.98
2019-03-24T20:17:43.179Z,9.92
2019-03-24T20:20:16.394Z,9.90
2019-03-24T20:22:56.285Z,9.92
2019-03-24T20:25:27.318Z,9.89
2019-03-24T20:27:59.300Z,9.86
2019-03-24T20:30:31.852Z,9.84
2019-03-24T20:33:04.283Z,9.82
2019-03-24T20:35:38.236Z,9.81
2019-03-24T20:38:13.239Z,9.83
2019-03-24T20:40:46.326Z,9.83
2019-03-24T20:43:19.320Z,9.82
2019-03-24T20:45:52.140Z,9.83
2019-03-24T20:48:25.326Z,9.81
2019-03-24T20:50:57.146Z,9.81
2019-03-24T20:53:30.364Z,9.84
2019-03-24T20:56:03.158Z,9.87
2019-03-24T20:58:36.363Z,9.89
2019-03-24T21:01:10.084Z,9.93
2019-03-24T21:03:42.393Z,9.93
2019-03-24T21:06:16.441Z,9.99
2019-03-24T21:08:49.846Z,10.05
2019-03-24T21:11:22.370Z,10.11
2019-03-24T21:13:55.046Z,10.14
2019-03-24T21:16:29.334Z,10.17
2019-03-24T21:19:03.456Z,10.18
2019-03-24T21:21:36.627Z,10.17
2019-03-24T21:24:10.335Z,10.16
2019-03-24T21:26:45.096Z,10.17
2019-03-24T21:29:16.933Z,10.15
2019-03-24T21:31:49.490Z,10.12
2019-03-24T21:34:22.195Z,10.11
2019-03-24T21:36:55.470Z,10.09
2019-03-24T21:39:29.377Z,10.06
2019-03-24T21:42:02.400Z,9.98
2019-03-24T21:44:38.449Z,9.85
2019-03-24T21:47:10.516Z,9.82
2019-03-24T21:49:44.067Z,9.81
2019-03-24T21:52:16.311Z,9.79
2019-03-24T21:54:50.528Z,9.86
2019-03-24T21:57:22.456Z,9.90
2019-03-24T21:59:55.271Z,9.95
2019-03-24T22:02:28.598Z,10.02
2019-03-24T22:05:01.738Z,10.01
2019-03-24T22:07:35.696Z,10.01
2019-03-24T22:10:11.248Z,9.97
2019-03-24T22:12:43.648Z,9.96
2019-03-24T22:15:16.353Z,9.94
2019-03-24T22:17:49.572Z,9.93
2019-03-24T22:20:23.647Z,9.95
2019-03-24T22:22:56.858Z,9.94
2019-03-24T22:25:30.650Z,9.93
2019-03-24T22:28:03.884Z,9.95
2019-03-24T22:30:37.640Z,9.95
2019-03-24T22:33:10.557Z,9.92
2019-03-24T22:35:42.780Z,9.92
2019-03-24T22:38:17.832Z,9.92
2019-03-24T22:40:51.597Z,9.94
2019-03-24T22:43:26.702Z,9.94
2019-03-24T22:45:58.877Z,9.94
2019-03-24T22:48:32.794Z,9.90
2019-03-24T22:51:06.806Z,9.89
2019-03-24T22:53:39.818Z,9.91
2019-03-24T22:56:13.892Z,9.90
2019-03-24T22:58:47.875Z,9.90
2019-03-24T23:01:21.460Z,9.91
2019-03-24T23:03:53.951Z,9.91
2019-03-24T23:06:26.840Z,9.91
2019-03-24T23:09:00.800Z,9.91
2019-03-24T23:11:32.809Z,9.90
2019-03-24T23:14:05.856Z,9.90
2019-03-24T23:16:37.999Z,9.90
2019-03-24T23:19:11.030Z,9.89
2019-03-24T23:21:44.990Z,9.90
2019-03-24T23:24:16.882Z,9.90
2019-03-24T23:26:50.894Z,9.92
2019-03-24T23:29:22.900Z,9.93
2019-03-24T23:31:56.223Z,9.95
2019-03-24T23:34:28.912Z,9.95
2019-03-24T23:37:02.850Z,9.94
2019-03-24T23:39:35.196Z,9.93
2019-03-24T23:42:07.215Z,9.93
2019-03-24T23:44:42.042Z,9.92
2019-03-24T23:47:14.883Z,9.94
2019-03-24T23:49:48.040Z,9.99
2019-03-24T23:52:20.081Z,10.00
2019-03-24T23:54:54.330Z,10.00
2019-03-24T23:57:29.243Z,10.00
